Sweeney Granite Mountains, California Weather observations

Data are for 10 minute period ending at time listed.
 Day   Time   Solar   Ave.   Ave.  Ave.  Vector  Max.   Baro.   Total    
  of    of     Rad.   Air    Rel.  Wind   Wind   Wind  Press.  Precip.   
Year   Day            Temp.  Hum.  Speed  Dir.   Gust                    
2017   (PST)  Kw/m2    F      %     mph   deg.    mph    mb.     in.     
-------------------------------------------------------------------------
 119   17:10   0.25   64.1    12    5.8   252    14.8   871.0    0.00 
 119   17:20   0.21   65.0    12    3.7   198     8.6   871.0    0.00 
 119   17:30   0.15   64.4    12    7.6   269    21.5   871.0    0.00 
 119   17:40   0.01   61.6    13    8.9   279    24.3   870.9    0.00 
 119   17:50   0.01   61.3    13    7.2   274    13.2   870.9    0.00 
 119   18:00   0.01   61.2    13    3.0   187    12.1   870.9    0.00 
 119   18:10   0.01   61.0    13    5.8   252    12.1   870.9    0.00 
 119   18:20   0.00   60.8    13    3.3   140     6.6   870.9    0.00 
 119   18:30   0.00   60.8    13    3.7   149     9.1   870.9    0.00 
 119   18:40   0.00   60.3    13    4.6   230     8.7   870.9    0.00 
 119   18:50   0.00   60.5    13    6.1   245    13.4   871.2    0.00 
 119   19:00   0.00   60.1    13    5.1   255    11.5   871.3    0.00 
 119   19:10   0.00   60.1    13    6.2   258    15.3   871.5    0.00 
 119   19:20   0.00   60.1    13    5.4   260    13.1   871.5    0.00 
 119   19:30   0.00   60.2    12    8.5   256    15.2   871.6    0.00 
 119   19:40   0.00   60.2    12    6.6   269    15.2   871.8    0.00 
 119   19:50   0.00   60.2    12    6.5   266    14.1   871.9    0.00 
 119   20:00   0.00   60.0    12    2.9   249    11.8   872.1    0.00 
 119   20:10   0.00   59.6    13    4.0   206     7.6   872.1    0.00 
 119   20:20   0.00   60.0    12    4.9   237    14.8   872.2    0.00 
 119   20:30   0.00   59.8    13    5.8   276    14.2   872.3    0.00 
 119   20:40   0.00   59.2    13    3.2   326     9.6   872.5    0.00 
 119   20:50   0.00   59.3    13    2.7   196     4.9   872.6    0.00 
 119   21:00   0.00   57.6    14    3.6   299     6.8   872.6    0.00 
 119   21:10   0.00   55.9    15    2.8   282     4.2   872.6    0.00 
 119   21:20   0.00   56.3    14    1.3   221     4.2   872.6    0.00 
 119   21:30   0.00   56.1    15    2.4   308     4.5   872.6    0.00 
 119   21:40   0.00   54.5    16    2.1   302     4.4   872.6    0.00 
 119   21:50   0.00   53.9    17    1.8   256     3.8   872.6    0.00 
 119   22:00   0.00   54.1    17    1.4   292     2.3   872.7    0.00 
 119   22:10   0.00   50.4    21    2.7   289     5.7   872.7    0.00 
 119   22:20   0.00   50.9    20    3.1   277     6.1   872.7    0.00 
 119   22:30   0.00   50.9    20    3.0   277     4.5   872.7    0.00 
 119   22:40   0.00   50.4    20    3.5   299     4.8   872.7    0.00 
 119   22:50   0.00   50.4    21    3.8   277     6.0   872.7    0.00 
 119   23:00   0.00   50.0    21    3.5   284     5.2   872.8    0.00 
 119   23:10   0.00   51.0    20    2.7   296     4.9   872.8    0.00 
 119   23:20   0.00   52.6    18    3.3   317     5.1   872.8    0.00 
 119   23:30   0.00   49.9    21    4.7   301     7.2   872.9    0.00 
 119   23:40   0.00   53.6    17    3.6   293     5.8   872.8    0.00 
 119   23:50   0.00   51.6    19    3.7   292     6.5   872.9    0.00 
 120    0:00   0.00   51.9    19    5.0   303     6.9   872.8    0.00 
 120    0:10   0.00   51.9    19    3.5   296     5.0   872.8    0.00 
 120    0:20   0.00   53.1    17    2.4   333     5.5   872.8    0.00 
 120    0:30   0.00   56.6    15    2.3   283     6.3   872.7    0.00 
 120    0:40   0.00   51.0    20    2.2   310     4.5   872.6    0.00 
 120    0:50   0.00   52.5    18    2.0   322     4.7   872.6    0.00 
 120    1:00   0.00   49.8    21    4.5   289     7.0   872.5    0.00 
 120    1:10   0.00   49.8    21    4.5   298     6.3   872.5    0.00 
 120    1:20   0.00   51.4    19    2.6   328     5.7   872.5    0.00 
 120    1:30   0.00   51.3    19    4.1   296     5.8   872.5    0.00 
 120    1:40   0.00   50.9    19    5.8   292     8.2   872.5    0.00 
 120    1:50   0.00   50.8    19    5.7   303     6.9   872.5    0.00 
 120    2:00   0.00   52.1    18    5.4   298     6.6   872.5    0.00 
 120    2:10   0.00   52.4    18    4.5   307     6.7   872.5    0.00 
 120    2:20   0.00   51.5    18    4.3   316     6.3   872.4    0.00 
 120    2:30   0.00   53.1    17    4.1    19     7.7   872.5    0.00 
 120    2:40   0.00   55.1    15    4.4    50     7.0   872.5    0.00 
 120    2:50   0.00   54.6    15    2.6    50     5.3   872.6    0.00 
 120    3:00   0.00   56.1    14    4.4    28     6.6   872.6    0.00 
 120    3:10   0.00   55.9    15    4.9    32     7.7   872.5    0.00 
 120    3:20   0.00   56.7    14    6.8    33     8.8   872.5    0.00 
 120    3:30   0.00   56.9    14    3.7    19     8.4   872.5    0.00 
 120    3:40   0.00   55.6    16    3.1   330     5.3   872.5    0.00 
 120    3:50   0.00   51.8    19    2.8   296     4.3   872.5    0.00 
 120    4:00   0.00   49.9    20    1.0   286     2.6   872.5    0.00 
 120    4:10   0.00   48.2    23    1.6   271     3.0   872.4    0.00 
 120    4:20   0.00   47.9    23    2.2   289     3.7   872.4    0.00 
 120    4:30   0.00   46.1    25    2.8   292     4.5   872.3    0.00 
 120    4:40   0.00   48.3    22    3.6   281     5.0   872.3    0.00 
 120    4:50   0.00   45.3    26    4.5   280     5.9   872.3    0.00 
 120    5:00   0.00   48.1    23    3.5   280     5.2   872.4    0.00 
 120    5:10   0.00   46.1    26    4.1   278     5.3   872.4    0.00 
 120    5:20   0.01   46.2    26    3.5   278     5.0   872.5    0.00 
 120    5:30   0.01   45.1    28    3.3   282     4.5   872.5    0.00 
 120    5:40   0.02   44.9    29    3.1   279     4.2   872.6    0.00 
 120    5:50   0.11   50.2    23    2.4   289     3.1   872.6    0.00 
 120    6:00   0.15   52.7    24    1.2   285     2.7   872.8    0.00 
 120    6:10   0.18   56.0    22    1.1   282     1.9   873.0    0.00 
 120    6:20   0.20   59.5    18    0.6   288     1.8   873.1    0.00 
 120    6:30   0.25   63.9    14    0.6    95     2.0   873.2    0.00 
 120    6:40   0.29   63.5    14    2.2    63     3.6   873.4    0.00 
 120    6:50   0.33   63.4    14    3.0    74     4.7   873.6    0.00 
 120    7:00   0.37   64.4    13    1.8    75     3.5   873.8    0.00 
 120    7:10   0.40   65.4    13    2.3    58     3.9   874.0    0.00 
 120    7:20   0.44   64.7    13    2.2    67     5.4   874.2    0.00 
 120    7:30   0.48   66.2    13    2.4   135     5.4   874.4    0.00 
 120    7:40   0.51   65.1    13    2.4   116     5.4   874.5    0.00 
 120    7:50   0.55   65.9    13    1.3   101     3.7   874.5    0.00 
 120    8:00   0.58   65.8    13    3.3    50     6.3   874.5    0.00 
 120    8:10   0.62   66.5    12    2.0    50     3.9   874.6    0.00 
 120    8:20   0.65   67.4    12    1.6   156     3.4   874.6    0.00 
 120    8:30   0.68   67.8    12    2.3   219     6.6   874.7    0.00 
 120    8:40   0.71   68.1    12    3.2   250     7.2   874.7    0.00 
 120    8:50   0.74   67.2    12    4.2   249     9.7   874.8    0.00 
 120    9:00   0.77   66.8    12    5.6   213    11.2   874.8    0.00 
 120    9:10   0.80   67.0    12    4.3   205     9.3   874.8    0.00 
 120    9:20   0.82   67.2    12    4.0   206     9.0   874.9    0.00 
 120    9:30   0.85   68.3    11    2.9   181    10.0   874.9    0.00 
 120    9:40   0.87   68.3    11    3.0   267     6.8   875.0    0.00 
 120    9:50   0.89   68.9    10    5.6   287    10.2   874.9    0.00 
 120   10:00   0.91   69.5    10    7.3   293    14.7   874.9    0.00 
 120   10:10   0.93   68.8    10    6.9   274    14.6   874.8    0.00 
 120   10:20   0.95   69.0    10    7.1   307    12.3   874.8    0.00 
 120   10:30   0.96   68.9    10    6.7   316    12.1   874.7    0.00 
 120   10:40   0.97   69.7    10    6.0   299    10.7   874.5    0.00 
 120   10:50   0.98   69.8    10    3.9   264    10.8   874.4    0.00 
 120   11:00   0.99   71.0    10    3.4   264    12.4   874.2    0.00 
 120   11:10   1.00   70.2    10    6.6   220    14.5   874.0    0.00 
 120   11:20   1.00   69.9    10    6.8   213    12.3   873.8    0.00 
 120   11:30   1.00   70.5    10    5.6   220    12.3   873.7    0.00 
 120   11:40   1.01   70.4    10    7.0   253    13.2   873.6    0.00 
 120   11:50   1.01   70.1    10    9.0   228    15.5   873.5    0.00 
 120   12:00   1.01   69.7    10    5.9   247    13.2   873.3    0.00 
 120   12:10   1.01   70.7    10    8.4   265    15.3   873.1    0.00 
 120   12:20   1.00   70.2    10    7.5   225    14.0   873.1    0.00 
 120   12:30   0.97   69.8    10    6.5   223    13.7   873.1    0.00 
 120   12:40   0.99   70.9    10    4.4   138    13.5   873.0    0.00 
 120   12:50   0.98   71.5    10    2.3    57     5.3   873.0    0.00 
 120   13:00   0.97   74.3     9    3.4   168     9.7   872.8    0.00 
 120   13:10   0.96   73.3     9    5.9   254    11.1   872.7    0.00 
 120   13:20   0.94   72.7     9    8.5   289    16.3   872.7    0.00 
 120   13:30   0.93   72.0     9    5.4   276    11.5   872.6    0.00 
 120   13:40   0.91   73.1     9    3.6   227     7.7   872.5    0.00 
 120   13:50   0.89   73.9     9    4.9   277     9.7   872.3    0.00 
 120   14:00   0.87   74.3     8    4.4   353    13.8   872.2    0.00 
 120   14:10   0.84   73.1     9    4.8   333    14.2   872.0    0.00 
 120   14:20   0.82   73.5     9    2.1   183     7.9   871.9    0.00 
 120   14:30   0.79   74.8     8    5.2   279    12.1   871.7    0.00 
 120   14:40   0.76   73.4     9    6.8   282    15.3   871.6    0.00 
 120   14:50   0.73   73.1     9    7.4   282    14.8   871.5    0.00 
 120   15:00   0.70   72.9     9    6.8   258    17.2   871.4    0.00 
 120   15:10   0.67   73.0     8    6.1   285    15.7   871.4    0.00 
 120   15:20   0.64   73.5     8    4.3   280    10.7   871.3    0.00 
 120   15:30   0.61   74.1     8    2.5   313     8.9   871.0    0.00 
 120   15:40   0.58   73.8     8    5.0   259    13.7   870.9    0.00 
 120   15:50   0.54   72.4     9    4.9   262    10.7   870.8    0.00 
 120   16:00   0.51   73.1     9    9.4   294    14.7   870.8    0.00 
 120   16:10   0.47   72.8     9    6.8   281    15.0   870.7    0.00 
 120   16:20   0.43   73.1     9    8.0   276    15.7   870.6    0.00 
 120   16:30   0.40   73.4     9    5.3   276    14.0   870.6    0.00 
 120   16:40   0.36   73.6     9    5.5   284    12.6   870.6    0.00 
 120   16:50   0.32   73.3     9    7.6   287    14.8   870.5    0.00 
 120   17:00   0.28   72.7     9    6.7   291    11.8   870.5    0.00 

Return to Sweeney Granite Mountains graphs page.


Western Regional Climate Center,wrcc@dri.edu